sensor_id;sensor_type;location;lat;lon;timestamp;pressure;altitude;pressure_sealevel;temperature
15709;BMP180;7954;51.914;8.420;2023-01-15T00:00:02;98569.75;;;11.93
15709;BMP180;7954;51.914;8.420;2023-01-15T00:02:33;98546.47;;;11.95
15709;BMP180;7954;51.914;8.420;2023-01-15T00:05:01;98544.75;;;12.01
15709;BMP180;7954;51.914;8.420;2023-01-15T00:07:30;98555.31;;;11.79
15709;BMP180;7954;51.914;8.420;2023-01-15T00:09:58;98562.06;;;11.86
15709;BMP180;7954;51.914;8.420;2023-01-15T00:12:26;98575.97;;;11.82
15709;BMP180;7954;51.914;8.420;2023-01-15T00:14:54;98573.69;;;11.91
15709;BMP180;7954;51.914;8.420;2023-01-15T00:17:23;98599.84;;;11.59
15709;BMP180;7954;51.914;8.420;2023-01-15T00:19:53;98600.63;;;11.41
15709;BMP180;7954;51.914;8.420;2023-01-15T00:22:25;98611.25;;;11.38
15709;BMP180;7954;51.914;8.420;2023-01-15T00:24:54;98612.38;;;11.40
15709;BMP180;7954;51.914;8.420;2023-01-15T00:27:40;98608.91;;;11.40
15709;BMP180;7954;51.914;8.420;2023-01-15T00:30:13;98601.16;;;11.38
15709;BMP180;7954;51.914;8.420;2023-01-15T00:32:41;98619.53;;;11.37
15709;BMP180;7954;51.914;8.420;2023-01-15T00:35:13;98626.72;;;11.47
15709;BMP180;7954;51.914;8.420;2023-01-15T00:37:42;98626.81;;;11.66
15709;BMP180;7954;51.914;8.420;2023-01-15T00:40:10;98642.78;;;11.72
15709;BMP180;7954;51.914;8.420;2023-01-15T00:42:39;98634.13;;;11.70
15709;BMP180;7954;51.914;8.420;2023-01-15T00:45:08;98662.81;;;11.70
15709;BMP180;7954;51.914;8.420;2023-01-15T00:47:37;98680.63;;;11.10
15709;BMP180;7954;51.914;8.420;2023-01-15T00:50:07;98676.28;;;11.21
15709;BMP180;7954;51.914;8.420;2023-01-15T00:52:37;98687.31;;;10.91
15709;BMP180;7954;51.914;8.420;2023-01-15T00:55:06;98705.06;;;10.74
15709;BMP180;7954;51.914;8.420;2023-01-15T00:57:34;98690.75;;;10.80
15709;BMP180;7954;51.914;8.420;2023-01-15T01:00:02;98708.25;;;10.73
15709;BMP180;7954;51.914;8.420;2023-01-15T01:02:30;98706.94;;;10.69
15709;BMP180;7954;51.914;8.420;2023-01-15T01:04:58;98697.28;;;10.72
15709;BMP180;7954;51.914;8.420;2023-01-15T01:07:26;98695.06;;;10.32
15709;BMP180;7954;51.914;8.420;2023-01-15T01:09:56;98711.47;;;10.41
15709;BMP180;7954;51.914;8.420;2023-01-15T01:12:24;98700.47;;;10.41
15709;BMP180;7954;51.914;8.420;2023-01-15T01:14:53;98719.81;;;10.35
15709;BMP180;7954;51.914;8.420;2023-01-15T01:17:21;98699.91;;;10.49
15709;BMP180;7954;51.914;8.420;2023-01-15T01:19:48;98697.38;;;10.49
15709;BMP180;7954;51.914;8.420;2023-01-15T01:22:16;98693.06;;;10.60
15709;BMP180;7954;51.914;8.420;2023-01-15T01:24:45;98677.00;;;10.47
15709;BMP180;7954;51.914;8.420;2023-01-15T01:27:14;98676.00;;;10.52
15709;BMP180;7954;51.914;8.420;2023-01-15T01:29:44;98684.06;;;10.50
15709;BMP180;7954;51.914;8.420;2023-01-15T01:32:12;98678.88;;;10.61
15709;BMP180;7954;51.914;8.420;2023-01-15T01:34:40;98671.22;;;10.66
15709;BMP180;7954;51.914;8.420;2023-01-15T01:37:08;98664.00;;;10.87
15709;BMP180;7954;51.914;8.420;2023-01-15T01:39:38;98676.59;;;10.75
15709;BMP180;7954;51.914;8.420;2023-01-15T01:42:10;98658.22;;;10.76
15709;BMP180;7954;51.914;8.420;2023-01-15T01:45:03;98666.72;;;10.88
15709;BMP180;7954;51.914;8.420;2023-01-15T01:47:33;98671.88;;;10.83
15709;BMP180;7954;51.914;8.420;2023-01-15T01:50:06;98674.91;;;10.81
15709;BMP180;7954;51.914;8.420;2023-01-15T01:52:38;98665.94;;;10.95
15709;BMP180;7954;51.914;8.420;2023-01-15T01:55:09;98657.97;;;10.92
15709;BMP180;7954;51.914;8.420;2023-01-15T01:57:38;98665.25;;;10.96
15709;BMP180;7954;51.914;8.420;2023-01-15T02:00:10;98660.69;;;10.93
15709;BMP180;7954;51.914;8.420;2023-01-15T02:02:40;98660.53;;;11.04
15709;BMP180;7954;51.914;8.420;2023-01-15T02:05:10;98683.94;;;11.03
15709;BMP180;7954;51.914;8.420;2023-01-15T02:07:40;98677.75;;;11.01
15709;BMP180;7954;51.914;8.420;2023-01-15T02:10:13;98670.13;;;11.07
15709;BMP180;7954;51.914;8.420;2023-01-15T02:12:45;98642.56;;;11.21
15709;BMP180;7954;51.914;8.420;2023-01-15T02:15:25;98638.41;;;11.21
15709;BMP180;7954;51.914;8.420;2023-01-15T02:18:00;98622.88;;;11.31
15709;BMP180;7954;51.914;8.420;2023-01-15T02:20:36;98633.28;;;11.39
15709;BMP180;7954;51.914;8.420;2023-01-15T02:23:44;98626.28;;;11.31
15709;BMP180;7954;51.914;8.420;2023-01-15T02:29:40;98641.53;;;11.13
15709;BMP180;7954;51.914;8.420;2023-01-15T02:32:12;98639.00;;;11.13
15709;BMP180;7954;51.914;8.420;2023-01-15T02:34:45;98635.19;;;11.22
15709;BMP180;7954;51.914;8.420;2023-01-15T02:37:19;98639.53;;;11.23
15709;BMP180;7954;51.914;8.420;2023-01-15T02:39:50;98640.94;;;11.21
15709;BMP180;7954;51.914;8.420;2023-01-15T02:42:19;98627.91;;;11.31
15709;BMP180;7954;51.914;8.420;2023-01-15T02:44:52;98612.38;;;11.28
15709;BMP180;7954;51.914;8.420;2023-01-15T02:47:25;98628.81;;;11.31
15709;BMP180;7954;51.914;8.420;2023-01-15T02:49:58;98637.72;;;11.22
15709;BMP180;7954;51.914;8.420;2023-01-15T02:52:31;98630.13;;;11.10
15709;BMP180;7954;51.914;8.420;2023-01-15T02:55:05;98620.22;;;11.24
15709;BMP180;7954;51.914;8.420;2023-01-15T02:57:36;98626.50;;;11.20
15709;BMP180;7954;51.914;8.420;2023-01-15T03:00:10;98631.97;;;11.23
15709;BMP180;7954;51.914;8.420;2023-01-15T03:02:43;98626.50;;;11.20
15709;BMP180;7954;51.914;8.420;2023-01-15T03:05:17;98618.19;;;11.21
15709;BMP180;7954;51.914;8.420;2023-01-15T03:07:49;98609.72;;;11.33
15709;BMP180;7954;51.914;8.420;2023-01-15T03:10:19;98612.75;;;11.31
15709;BMP180;7954;51.914;8.420;2023-01-15T03:12:53;98608.09;;;11.21
15709;BMP180;7954;51.914;8.420;2023-01-15T03:15:43;98609.63;;;11.26
15709;BMP180;7954;51.914;8.420;2023-01-15T03:18:31;98610.63;;;11.09
15709;BMP180;7954;51.914;8.420;2023-01-15T03:21:04;98599.31;;;11.12
15709;BMP180;7954;51.914;8.420;2023-01-15T03:23:35;98594.56;;;11.08
15709;BMP180;7954;51.914;8.420;2023-01-15T03:26:05;98583.47;;;11.13
15709;BMP180;7954;51.914;8.420;2023-01-15T03:28:35;98605.19;;;11.18
15709;BMP180;7954;51.914;8.420;2023-01-15T03:31:06;98604.06;;;11.16
15709;BMP180;7954;51.914;8.420;2023-01-15T03:33:35;98584.59;;;11.28
15709;BMP180;7954;51.914;8.420;2023-01-15T03:36:04;98595.47;;;11.21
15709;BMP180;7954;51.914;8.420;2023-01-15T03:38:36;98591.16;;;11.08
15709;BMP180;7954;51.914;8.420;2023-01-15T03:41:13;98586.19;;;11.27
15709;BMP180;7954;51.914;8.420;2023-01-15T03:43:52;98577.41;;;11.18
15709;BMP180;7954;51.914;8.420;2023-01-15T03:46:34;98564.16;;;11.26
15709;BMP180;7954;51.914;8.420;2023-01-15T03:49:11;98555.38;;;11.30
15709;BMP180;7954;51.914;8.420;2023-01-15T03:51:43;98575.28;;;11.21
15709;BMP180;7954;51.914;8.420;2023-01-15T03:54:20;98579.75;;;11.29
15709;BMP180;7954;51.914;8.420;2023-01-15T03:56:53;98578.72;;;11.34
15709;BMP180;7954;51.914;8.420;2023-01-15T03:59:28;98576.09;;;11.27
15709;BMP180;7954;51.914;8.420;2023-01-15T04:02:01;98572.47;;;11.13
15709;BMP180;7954;51.914;8.420;2023-01-15T04:04:32;98572.97;;;11.10
15709;BMP180;7954;51.914;8.420;2023-01-15T04:07:01;98568.81;;;11.23
15709;BMP180;7954;51.914;8.420;2023-01-15T04:09:29;98564.91;;;11.25
15709;BMP180;7954;51.914;8.420;2023-01-15T04:11:58;98576.91;;;11.33
15709;BMP180;7954;51.914;8.420;2023-01-15T04:14:28;98571.72;;;11.39
15709;BMP180;7954;51.914;8.420;2023-01-15T04:16:56;98559.59;;;11.49
15709;BMP180;7954;51.914;8.420;2023-01-15T04:19:26;98571.16;;;11.59
15709;BMP180;7954;51.914;8.420;2023-01-15T04:21:53;98568.31;;;11.38
15709;BMP180;7954;51.914;8.420;2023-01-15T04:24:21;98566.97;;;11.47
15709;BMP180;7954;51.914;8.420;2023-01-15T04:26:49;98577.53;;;11.50
15709;BMP180;7954;51.914;8.420;2023-01-15T04:29:18;98565.88;;;11.70
15709;BMP180;7954;51.914;8.420;2023-01-15T04:31:46;98566.09;;;11.59
15709;BMP180;7954;51.914;8.420;2023-01-15T04:34:14;98569.50;;;11.72
15709;BMP180;7954;51.914;8.420;2023-01-15T04:36:43;98571.00;;;11.77
15709;BMP180;7954;51.914;8.420;2023-01-15T04:39:13;98565.88;;;11.70
15709;BMP180;7954;51.914;8.420;2023-01-15T04:41:41;98566.25;;;11.73
15709;BMP180;7954;51.914;8.420;2023-01-15T04:44:26;98571.50;;;11.74
15709;BMP180;7954;51.914;8.420;2023-01-15T04:46:55;98579.56;;;11.84
15709;BMP180;7954;51.914;8.420;2023-01-15T04:49:25;98581.78;;;11.88
15709;BMP180;7954;51.914;8.420;2023-01-15T04:51:55;98577.00;;;11.77
15709;BMP180;7954;51.914;8.420;2023-01-15T04:54:23;98559.47;;;11.79
15709;BMP180;7954;51.914;8.420;2023-01-15T04:56:52;98555.59;;;11.88
15709;BMP180;7954;51.914;8.420;2023-01-15T04:59:22;98557.50;;;11.96
15709;BMP180;7954;51.914;8.420;2023-01-15T05:01:52;98560.75;;;11.95
15709;BMP180;7954;51.914;8.420;2023-01-15T05:04:30;98564.28;;;12.02
15709;BMP180;7954;51.914;8.420;2023-01-15T05:07:01;98573.22;;;12.13
15709;BMP180;7954;51.914;8.420;2023-01-15T05:09:29;98580.53;;;12.04
15709;BMP180;7954;51.914;8.420;2023-01-15T05:11:57;98581.09;;;11.89
15709;BMP180;7954;51.914;8.420;2023-01-15T05:14:24;98583.03;;;11.85
15709;BMP180;7954;51.914;8.420;2023-01-15T05:16:52;98574.81;;;11.93
15709;BMP180;7954;51.914;8.420;2023-01-15T05:19:20;98563.34;;;12.02
15709;BMP180;7954;51.914;8.420;2023-01-15T05:21:48;98565.50;;;11.99
15709;BMP180;7954;51.914;8.420;2023-01-15T05:24:18;98586.75;;;11.94
15709;BMP180;7954;51.914;8.420;2023-01-15T05:26:46;98573.63;;;11.84
15709;BMP180;7954;51.914;8.420;2023-01-15T05:29:15;98574.13;;;11.81
15709;BMP180;7954;51.914;8.420;2023-01-15T05:31:42;98573.63;;;11.84
15709;BMP180;7954;51.914;8.420;2023-01-15T05:34:11;98581.03;;;11.82
15709;BMP180;7954;51.914;8.420;2023-01-15T05:36:40;98572.16;;;11.98
15709;BMP180;7954;51.914;8.420;2023-01-15T05:39:08;98583.09;;;11.92
15709;BMP180;7954;51.914;8.420;2023-01-15T05:41:37;98570.75;;;12.00
15709;BMP180;7954;51.914;8.420;2023-01-15T05:44:21;98583.91;;;11.98
15709;BMP180;7954;51.914;8.420;2023-01-15T05:46:50;98573.47;;;12.02
15709;BMP180;7954;51.914;8.420;2023-01-15T05:49:22;98570.47;;;11.92
15709;BMP180;7954;51.914;8.420;2023-01-15T05:51:51;98581.41;;;11.85
15709;BMP180;7954;51.914;8.420;2023-01-15T05:54:20;98577.22;;;11.98
15709;BMP180;7954;51.914;8.420;2023-01-15T05:56:51;98585.91;;;12.00
15709;BMP180;7954;51.914;8.420;2023-01-15T05:59:21;98596.69;;;12.12
15709;BMP180;7954;51.914;8.420;2023-01-15T06:01:50;98584.13;;;12.18
15709;BMP180;7954;51.914;8.420;2023-01-15T06:04:18;98594.53;;;11.95
15709;BMP180;7954;51.914;8.420;2023-01-15T06:06:48;98601.22;;;11.95
15709;BMP180;7954;51.914;8.420;2023-01-15T06:09:17;98605.34;;;11.94
15709;BMP180;7954;51.914;8.420;2023-01-15T06:11:46;98602.31;;;11.97
15709;BMP180;7954;51.914;8.420;2023-01-15T06:14:15;98597.75;;;11.94
15709;BMP180;7954;51.914;8.420;2023-01-15T06:16:43;98600.91;;;11.99
15709;BMP180;7954;51.914;8.420;2023-01-15T06:19:12;98595.41;;;11.96
15709;BMP180;7954;51.914;8.420;2023-01-15T06:21:40;98587.66;;;11.94
15709;BMP180;7954;51.914;8.420;2023-01-15T06:24:08;98590.59;;;11.97
15709;BMP180;7954;51.914;8.420;2023-01-15T06:26:37;98583.56;;;12.02
15709;BMP180;7954;51.914;8.420;2023-01-15T06:29:05;98585.03;;;12.00
15709;BMP180;7954;51.914;8.420;2023-01-15T06:31:34;98593.63;;;11.95
15709;BMP180;7954;51.914;8.420;2023-01-15T06:34:03;98590.78;;;11.99
15709;BMP180;7954;51.914;8.420;2023-01-15T06:36:31;98595.72;;;12.04
15709;BMP180;7954;51.914;8.420;2023-01-15T06:38:59;98592.66;;;12.07
15709;BMP180;7954;51.914;8.420;2023-01-15T06:41:30;98588.72;;;12.09
15709;BMP180;7954;51.914;8.420;2023-01-15T06:44:17;98582.22;;;12.11
15709;BMP180;7954;51.914;8.420;2023-01-15T06:47:11;98599.63;;;12.15
15709;BMP180;7954;51.914;8.420;2023-01-15T06:49:52;98582.22;;;12.11
15709;BMP180;7954;51.914;8.420;2023-01-15T06:52:21;98583.66;;;12.09
15709;BMP180;7954;51.914;8.420;2023-01-15T06:54:50;98605.63;;;12.03
15709;BMP180;7954;51.914;8.420;2023-01-15T06:57:18;98580.81;;;12.13
15709;BMP180;7954;51.914;8.420;2023-01-15T06:59:46;98587.78;;;12.08
15709;BMP180;7954;51.914;8.420;2023-01-15T07:02:16;98604.09;;;12.10
15709;BMP180;7954;51.914;8.420;2023-01-15T07:04:44;98592.81;;;12.20
15709;BMP180;7954;51.914;8.420;2023-01-15T07:07:12;98597.97;;;12.27
15709;BMP180;7954;51.914;8.420;2023-01-15T07:09:41;98590.69;;;12.23
15709;BMP180;7954;51.914;8.420;2023-01-15T07:12:09;98593.69;;;12.33
15709;BMP180;7954;51.914;8.420;2023-01-15T07:14:37;98590.38;;;12.27
15709;BMP180;7954;51.914;8.420;2023-01-15T07:17:05;98609.34;;;12.12
15709;BMP180;7954;51.914;8.420;2023-01-15T07:19:34;98601.56;;;12.10
15709;BMP180;7954;51.914;8.420;2023-01-15T07:22:03;98598.19;;;12.17
15709;BMP180;7954;51.914;8.420;2023-01-15T07:24:31;98614.00;;;12.09
15709;BMP180;7954;51.914;8.420;2023-01-15T07:26:59;98595.75;;;12.23
15709;BMP180;7954;51.914;8.420;2023-01-15T07:29:27;98593.78;;;12.09
15709;BMP180;7954;51.914;8.420;2023-01-15T07:31:57;98587.75;;;12.20
15709;BMP180;7954;51.914;8.420;2023-01-15T07:34:25;98587.03;;;12.21
15709;BMP180;7954;51.914;8.420;2023-01-15T07:36:55;98601.75;;;12.12
15709;BMP180;7954;51.914;8.420;2023-01-15T07:39:22;98592.44;;;12.18
15709;BMP180;7954;51.914;8.420;2023-01-15T07:41:51;98595.38;;;12.08
15709;BMP180;7954;51.914;8.420;2023-01-15T07:44:36;98615.09;;;12.11
15709;BMP180;7954;51.914;8.420;2023-01-15T07:47:23;98596.72;;;11.99
15709;BMP180;7954;51.914;8.420;2023-01-15T07:50:11;98604.41;;;12.06
15709;BMP180;7954;51.914;8.420;2023-01-15T07:52:41;98593.38;;;12.06
15709;BMP180;7954;51.914;8.420;2023-01-15T07:55:16;98598.84;;;12.09
15709;BMP180;7954;51.914;8.420;2023-01-15T07:57:44;98586.19;;;12.28
15709;BMP180;7954;51.914;8.420;2023-01-15T08:00:15;98585.06;;;12.07
15709;BMP180;7954;51.914;8.420;2023-01-15T08:02:45;98604.75;;;12.21
15709;BMP180;7954;51.914;8.420;2023-01-15T08:05:15;98607.50;;;12.11
15709;BMP180;7954;51.914;8.420;2023-01-15T08:07:45;98611.53;;;11.96
15709;BMP180;7954;51.914;8.420;2023-01-15T08:10:14;98592.91;;;11.83
15709;BMP180;7954;51.914;8.420;2023-01-15T08:12:42;98588.72;;;12.09
15709;BMP180;7954;51.914;8.420;2023-01-15T08:15:38;98594.59;;;12.34
15709;BMP180;7954;51.914;8.420;2023-01-15T08:18:08;98596.50;;;12.42
15709;BMP180;7954;51.914;8.420;2023-01-15T08:20:36;98616.47;;;12.33
15709;BMP180;7954;51.914;8.420;2023-01-15T08:23:06;98626.72;;;12.16
15709;BMP180;7954;51.914;8.420;2023-01-15T08:25:36;98606.97;;;12.25
15709;BMP180;7954;51.914;8.420;2023-01-15T08:28:04;98623.00;;;12.07
15709;BMP180;7954;51.914;8.420;2023-01-15T08:30:33;98652.88;;;11.97
15709;BMP180;7954;51.914;8.420;2023-01-15T08:33:01;98619.72;;;11.76
15709;BMP180;7954;51.914;8.420;2023-01-15T08:35:30;98654.00;;;11.49
15709;BMP180;7954;51.914;8.420;2023-01-15T08:38:07;98631.75;;;11.09
15709;BMP180;7954;51.914;8.420;2023-01-15T08:40:35;98626.50;;;11.20
15709;BMP180;7954;51.914;8.420;2023-01-15T08:43:23;98642.69;;;11.40
15709;BMP180;7954;51.914;8.420;2023-01-15T08:45:52;98650.34;;;11.47
15709;BMP180;7954;51.914;8.420;2023-01-15T08:48:22;98640.34;;;11.17
15709;BMP180;7954;51.914;8.420;2023-01-15T08:50:50;98642.47;;;11.39
15709;BMP180;7954;51.914;8.420;2023-01-15T08:53:21;98647.81;;;11.47
15709;BMP180;7954;51.914;8.420;2023-01-15T08:55:50;98669.22;;;11.31
15709;BMP180;7954;51.914;8.420;2023-01-15T08:58:19;98645.53;;;11.61
15709;BMP180;7954;51.914;8.420;2023-01-15T09:00:46;98645.75;;;11.75
15709;BMP180;7954;51.914;8.420;2023-01-15T09:03:14;98635.22;;;11.59
15709;BMP180;7954;51.914;8.420;2023-01-15T09:05:42;98644.13;;;11.75
15709;BMP180;7954;51.914;8.420;2023-01-15T09:08:10;98657.47;;;11.62
15709;BMP180;7954;51.914;8.420;2023-01-15T09:10:39;98644.72;;;11.80
15709;BMP180;7954;51.914;8.420;2023-01-15T09:13:07;98652.69;;;11.83
15709;BMP180;7954;51.914;8.420;2023-01-15T09:15:35;98653.09;;;11.73
15709;BMP180;7954;51.914;8.420;2023-01-15T09:18:03;98660.16;;;11.76
15709;BMP180;7954;51.914;8.420;2023-01-15T09:20:31;98653.09;;;11.86
15709;BMP180;7954;51.914;8.420;2023-01-15T09:22:59;98643.56;;;12.03
15709;BMP180;7954;51.914;8.420;2023-01-15T09:25:27;98655.72;;;11.93
15709;BMP180;7954;51.914;8.420;2023-01-15T09:27:56;98646.56;;;12.13
15709;BMP180;7954;51.914;8.420;2023-01-15T09:30:24;98638.66;;;12.17
15709;BMP180;7954;51.914;8.420;2023-01-15T09:32:52;98656.41;;;12.04
15709;BMP180;7954;51.914;8.420;2023-01-15T09:35:20;98650.28;;;12.21
15709;BMP180;7954;51.914;8.420;2023-01-15T09:37:50;98652.91;;;12.28
15709;BMP180;7954;51.914;8.420;2023-01-15T09:40:33;98649.72;;;12.36
15709;BMP180;7954;51.914;8.420;2023-01-15T09:43:09;98658.72;;;12.15
15709;BMP180;7954;51.914;8.420;2023-01-15T09:45:46;98650.22;;;12.15
15709;BMP180;7954;51.914;8.420;2023-01-15T09:48:25;98656.94;;;12.33
15709;BMP180;7954;51.914;8.420;2023-01-15T09:51:05;98647.75;;;12.21
15709;BMP180;7954;51.914;8.420;2023-01-15T09:56:27;98654.97;;;12.18
15709;BMP180;7954;51.914;8.420;2023-01-15T09:58:58;98650.44;;;12.04
15709;BMP180;7954;51.914;8.420;2023-01-15T10:01:29;98664.41;;;12.07
15709;BMP180;7954;51.914;8.420;2023-01-15T10:04:04;98648.53;;;11.96
15709;BMP180;7954;51.914;8.420;2023-01-15T10:06:37;98647.59;;;12.08
15709;BMP180;7954;51.914;8.420;2023-01-15T10:09:12;98654.97;;;12.18
15709;BMP180;7954;51.914;8.420;2023-01-15T10:11:43;98643.44;;;12.40
15709;BMP180;7954;51.914;8.420;2023-01-15T10:14:35;98641.97;;;12.74
15709;BMP180;7954;51.914;8.420;2023-01-15T10:17:20;98639.25;;;12.72
15709;BMP180;7954;51.914;8.420;2023-01-15T10:19:49;98636.38;;;12.88
15709;BMP180;7954;51.914;8.420;2023-01-15T10:22:31;98634.88;;;13.03
15709;BMP180;7954;51.914;8.420;2023-01-15T10:25:08;98621.31;;;13.29
15709;BMP180;7954;51.914;8.420;2023-01-15T10:27:45;98629.28;;;13.05
15709;BMP180;7954;51.914;8.420;2023-01-15T10:30:22;98632.72;;;13.06
15709;BMP180;7954;51.914;8.420;2023-01-15T10:32:54;98631.38;;;12.95
15709;BMP180;7954;51.914;8.420;2023-01-15T10:35:38;98633.44;;;12.85
15709;BMP180;7954;51.914;8.420;2023-01-15T10:38:17;98635.31;;;12.93
15709;BMP180;7954;51.914;8.420;2023-01-15T10:41:21;98634.34;;;12.86
15709;BMP180;7954;51.914;8.420;2023-01-15T10:44:02;98659.41;;;12.78
15709;BMP180;7954;51.914;8.420;2023-01-15T10:46:38;98651.38;;;12.87
15709;BMP180;7954;51.914;8.420;2023-01-15T10:49:12;98658.88;;;12.80
15709;BMP180;7954;51.914;8.420;2023-01-15T10:51:42;98688.97;;;12.52
15709;BMP180;7954;51.914;8.420;2023-01-15T10:54:21;98654.88;;;12.75
15709;BMP180;7954;51.914;8.420;2023-01-15T10:56:56;98650.00;;;12.96
15709;BMP180;7954;51.914;8.420;2023-01-15T10:59:35;98657.59;;;13.15
15709;BMP180;7954;51.914;8.420;2023-01-15T11:02:18;98640.63;;;13.21
15709;BMP180;7954;51.914;8.420;2023-01-15T11:04:48;98660.91;;;13.21
15709;BMP180;7954;51.914;8.420;2023-01-15T11:07:16;98646.84;;;13.30
15709;BMP180;7954;51.914;8.420;2023-01-15T11:09:45;98638.97;;;13.41
15709;BMP180;7954;51.914;8.420;2023-01-15T11:12:20;98631.63;;;13.56
15709;BMP180;7954;51.914;8.420;2023-01-15T11:15:14;98620.72;;;13.50
15709;BMP180;7954;51.914;8.420;2023-01-15T11:18:02;98639.84;;;13.35
15709;BMP180;7954;51.914;8.420;2023-01-15T11:20:49;98629.19;;;13.44
15709;BMP180;7954;51.914;8.420;2023-01-15T11:23:19;98620.97;;;13.59
15709;BMP180;7954;51.914;8.420;2023-01-15T11:25:50;98632.03;;;13.59
15709;BMP180;7954;51.914;8.420;2023-01-15T11:28:29;98632.34;;;13.89
15709;BMP180;7954;51.914;8.420;2023-01-15T11:31:01;98635.06;;;13.90
15709;BMP180;7954;51.914;8.420;2023-01-15T11:33:30;98654.03;;;13.80
15709;BMP180;7954;51.914;8.420;2023-01-15T11:36:00;98641.72;;;13.76
15709;BMP180;7954;51.914;8.420;2023-01-15T11:38:30;98635.41;;;13.86
15709;BMP180;7954;51.914;8.420;2023-01-15T11:40:59;98619.25;;;13.72
15709;BMP180;7954;51.914;8.420;2023-01-15T11:43:29;98610.84;;;14.06
15709;BMP180;7954;51.914;8.420;2023-01-15T11:46:27;98616.94;;;13.87
15709;BMP180;7954;51.914;8.420;2023-01-15T11:49:17;98614.28;;;13.66
15709;BMP180;7954;51.914;8.420;2023-01-15T11:52:05;98616.69;;;13.72
15709;BMP180;7954;51.914;8.420;2023-01-15T11:54:36;98630.41;;;14.00
15709;BMP180;7954;51.914;8.420;2023-01-15T11:57:08;98623.63;;;14.13
15709;BMP180;7954;51.914;8.420;2023-01-15T11:59:37;98622.38;;;14.23
15709;BMP180;7954;51.914;8.420;2023-01-15T12:02:14;98621.44;;;14.09
15709;BMP180;7954;51.914;8.420;2023-01-15T12:04:49;98623.06;;;13.82
15709;BMP180;7954;51.914;8.420;2023-01-15T12:07:19;98618.66;;;14.08
15709;BMP180;7954;51.914;8.420;2023-01-15T12:13:24;98646.78;;;13.76
15709;BMP180;7954;51.914;8.420;2023-01-15T12:15:58;98620.94;;;13.92
15709;BMP180;7954;51.914;8.420;2023-01-15T12:18:46;98619.34;;;14.00
15709;BMP180;7954;51.914;8.420;2023-01-15T12:21:28;98622.81;;;14.07
15709;BMP180;7954;51.914;8.420;2023-01-15T12:24:09;98649.44;;;13.97
15709;BMP180;7954;51.914;8.420;2023-01-15T12:26:49;98642.00;;;14.05
15709;BMP180;7954;51.914;8.420;2023-01-15T12:29:25;98620.38;;;13.88
15709;BMP180;7954;51.914;8.420;2023-01-15T12:31:57;98627.03;;;13.80
15709;BMP180;7954;51.914;8.420;2023-01-15T12:34:32;98620.72;;;13.77
15709;BMP180;7954;51.914;8.420;2023-01-15T12:37:06;98610.69;;;13.71
15709;BMP180;7954;51.914;8.420;2023-01-15T12:39:44;98626.31;;;13.74
15709;BMP180;7954;51.914;8.420;2023-01-15T12:42:16;98634.44;;;13.72
15709;BMP180;7954;51.914;8.420;2023-01-15T12:45:06;98612.09;;;13.62
15709;BMP180;7954;51.914;8.420;2023-01-15T12:47:41;98617.72;;;13.60
15709;BMP180;7954;51.914;8.420;2023-01-15T12:50:31;98617.47;;;13.51
15709;BMP180;7954;51.914;8.420;2023-01-15T12:53:09;98594.81;;;13.79
15709;BMP180;7954;51.914;8.420;2023-01-15T12:55:40;98616.72;;;13.46
15709;BMP180;7954;51.914;8.420;2023-01-15T12:58:19;98625.25;;;13.46
15709;BMP180;7954;51.914;8.420;2023-01-15T13:00:48;98618.53;;;13.47
15709;BMP180;7954;51.914;8.420;2023-01-15T13:03:22;98620.47;;;13.16
15709;BMP180;7954;51.914;8.420;2023-01-15T13:05:53;98617.84;;;13.21
15709;BMP180;7954;51.914;8.420;2023-01-15T13:08:26;98602.25;;;13.45
15709;BMP180;7954;51.914;8.420;2023-01-15T13:10:56;98613.22;;;13.64
15709;BMP180;7954;51.914;8.420;2023-01-15T13:13:29;98617.63;;;13.46
15709;BMP180;7954;51.914;8.420;2023-01-15T13:16:04;98644.94;;;13.42
15709;BMP180;7954;51.914;8.420;2023-01-15T13:18:43;98620.97;;;13.33
15709;BMP180;7954;51.914;8.420;2023-01-15T13:21:15;98627.53;;;13.38
15709;BMP180;7954;51.914;8.420;2023-01-15T13:23:56;98627.22;;;13.75
15709;BMP180;7954;51.914;8.420;2023-01-15T13:29:36;98616.47;;;13.70
15709;BMP180;7954;51.914;8.420;2023-01-15T13:32:09;98616.19;;;13.81
15709;BMP180;7954;51.914;8.420;2023-01-15T13:34:42;98625.25;;;13.79
15709;BMP180;7954;51.914;8.420;2023-01-15T13:37:19;98602.44;;;13.86
15709;BMP180;7954;51.914;8.420;2023-01-15T13:39:52;98612.38;;;14.18
15709;BMP180;7954;51.914;8.420;2023-01-15T13:42:25;98620.19;;;14.19
15709;BMP180;7954;51.914;8.420;2023-01-15T13:45:05;98625.25;;;13.86
15709;BMP180;7954;51.914;8.420;2023-01-15T13:47:36;98622.78;;;14.00
15709;BMP180;7954;51.914;8.420;2023-01-15T13:50:14;98612.69;;;14.07
15709;BMP180;7954;51.914;8.420;2023-01-15T13:52:44;98616.00;;;14.13
15709;BMP180;7954;51.914;8.420;2023-01-15T13:55:20;98633.28;;;13.96
15709;BMP180;7954;51.914;8.420;2023-01-15T13:57:52;98643.22;;;13.54
15709;BMP180;7954;51.914;8.420;2023-01-15T14:00:29;98628.75;;;13.60
15709;BMP180;7954;51.914;8.420;2023-01-15T14:02:58;98611.44;;;13.44
15709;BMP180;7954;51.914;8.420;2023-01-15T14:05:30;98620.91;;;13.78
15709;BMP180;7954;51.914;8.420;2023-01-15T14:07:59;98604.66;;;13.57
15709;BMP180;7954;51.914;8.420;2023-01-15T14:10:37;98643.16;;;13.21
15709;BMP180;7954;51.914;8.420;2023-01-15T14:16:19;98641.84;;;13.37
15709;BMP180;7954;51.914;8.420;2023-01-15T14:19:14;98635.47;;;13.60
15709;BMP180;7954;51.914;8.420;2023-01-15T14:21:57;98638.22;;;13.68
15709;BMP180;7954;51.914;8.420;2023-01-15T14:24:50;98650.47;;;13.58
15709;BMP180;7954;51.914;8.420;2023-01-15T14:27:38;98669.50;;;13.36
15709;BMP180;7954;51.914;8.420;2023-01-15T14:30:22;98688.53;;;13.39
15709;BMP180;7954;51.914;8.420;2023-01-15T14:33:00;98662.66;;;13.15
15709;BMP180;7954;51.914;8.420;2023-01-15T14:35:35;98654.00;;;13.40
15709;BMP180;7954;51.914;8.420;2023-01-15T14:38:07;98648.56;;;13.44
15709;BMP180;7954;51.914;8.420;2023-01-15T14:40:51;98666.31;;;13.17
15709;BMP180;7954;51.914;8.420;2023-01-15T14:43:22;98660.28;;;13.10
15709;BMP180;7954;51.914;8.420;2023-01-15T14:45:51;98649.72;;;13.26
15709;BMP180;7954;51.914;8.420;2023-01-15T14:48:34;98680.16;;;13.33
15709;BMP180;7954;51.914;8.420;2023-01-15T14:51:09;98695.78;;;13.36
15709;BMP180;7954;51.914;8.420;2023-01-15T14:53:41;98680.22;;;13.14
15709;BMP180;7954;51.914;8.420;2023-01-15T14:56:17;98663.00;;;13.38
15709;BMP180;7954;51.914;8.420;2023-01-15T14:58:52;98688.59;;;13.46
15709;BMP180;7954;51.914;8.420;2023-01-15T15:01:31;98658.03;;;13.51
15709;BMP180;7954;51.914;8.420;2023-01-15T15:04:08;98687.97;;;13.35
15709;BMP180;7954;51.914;8.420;2023-01-15T15:06:44;98694.91;;;13.43
15709;BMP180;7954;51.914;8.420;2023-01-15T15:09:25;98693.13;;;13.22